Chantaco — FMLM — position and weather

sailwx.info

Track history (hours):
 
Tides and Currents Weather Stations Pressure Air Temp Water Temp Dewpoint Dewpoint Depression Visibility Wind Speed Wind Dir Waves Ship Positions

Chantaco

Last reported at 2016-Jun-30 15:16 UTC. Time now 2016-Jun-30 17:46 UTC.
Position N 52°10' E 003°41'.

Length 143 m; draft 6.7 m.

Type: Tanker. MMSI: 228330700.

Date/timePositionNaut miles runAvg speedWind from/ knotsBaromVisibWave heightAir tempDewpointWater temp
2016-Jun-30 15:16N 52°10' E 003°41'0 0.0
2016-Jun-30 14:25N 52°10' E 003°41'0 0.0
2016-Jun-30 08:10N 52°10' E 003°41'0 0.0
2016-Jun-30 07:25N 52°10' E 003°41'0 0.0
2016-Jun-30 06:25N 52°10' E 003°41'0 0.0
2016-Jun-30 05:31N 52°10' E 003°41'0 0.0
2016-Jun-30 04:31N 52°10' E 003°41'0 0.0
2016-Jun-30 03:19N 52°10' E 003°41'0 0.0
2016-Jun-30 02:31N 52°10' E 003°41'0 0.0
2016-Jun-29 22:07N 52°10' E 003°41'0 0.0
2016-Jun-29 21:31N 52°10' E 003°41'0 0.0
2016-Jun-29 16:25N 52°10' E 003°41'0 0.0
2016-Jun-29 15:19N 52°10' E 003°41'0 0.0
2016-Jun-29 14:31N 52°10' E 003°41'0 0.0
2016-Jun-29 13:28N 52°10' E 003°41'0 0.0
2016-Jun-29 12:25N 52°10' E 003°41'0 0.0
2016-Jun-29 07:25N 52°10' E 003°41'0 0.0
2016-Jun-29 05:30N 52°10' E 003°41'0 0.0
2016-Jun-29 04:33N 52°10' E 003°41'0 0.0
2016-Jun-29 03:33N 52°10' E 003°41'0 0.0
2016-Jun-29 02:33N 52°10' E 003°41'1 1.2
2016-Jun-29 01:33N 52°09' E 003°42'1110.6
2016-Jun-29 00:33N 52°02' E 003°55'1211.5
2016-Jun-28 23:33N 51°56' E 004°11'1 1.4
2016-Jun-28 22:33N 51°55' E 004°12'0 0.0
2016-Jun-28 21:33N 51°55' E 004°12'0 0.0
2016-Jun-28 20:33N 51°55' E 004°12'0 0.0
2016-Jun-28 19:33N 51°55' E 004°12'0 0.0
2016-Jun-28 18:33N 51°55' E 004°12'0 0.0
2016-Jun-28 17:33N 51°55' E 004°12'0 0.0
2016-Jun-28 16:33N 51°55' E 004°12'0 0.0
2016-Jun-28 15:27N 51°55' E 004°12'0 0.0
2016-Jun-28 14:33N 51°55' E 004°12'0 0.0
2016-Jun-28 13:30N 51°55' E 004°12'0 0.0
2016-Jun-28 12:24N 51°55' E 004°12'0 0.0
2016-Jun-28 11:27N 51°55' E 004°12'0 0.0
2016-Jun-28 10:30N 51°55' E 004°12'0 0.0
2016-Jun-28 09:33N 51°55' E 004°12'0 0.0
2016-Jun-28 08:32N 51°55' E 004°12'0 0.0
2016-Jun-28 07:32N 51°55' E 004°12'0 0.0
2016-Jun-28 06:32N 51°55' E 004°12'0 0.0
2016-Jun-28 04:32N 51°55' E 004°12'0 0.0
2016-Jun-28 03:32N 51°55' E 004°12'0 0.0
2016-Jun-28 02:32N 51°55' E 004°12'0 0.1
2016-Jun-28 01:34N 51°55' E 004°12'7 7.2
2016-Jun-28 00:33N 51°59' E 004°03'1010.1
2016-Jun-27 23:33N 52°01' E 003°47'1413.9
2016-Jun-27 22:33N 52°08' E 003°28'1313.3
2016-Jun-27 21:33N 52°18' E 003°12'6613.1
2016-Jun-27 16:33N 53°03' E 001°54'1413.9
2016-Jun-27 15:33N 53°08' E 001°33'1413.8
2016-Jun-27 14:33N 53°16' E 001°14'1413.4
2016-Jun-27 13:30N 53°27' E 000°59'1414.1
2016-Jun-27 12:32N 53°30' E 000°37'1413.8
2016-Jun-27 11:34N 53°33' E 000°14'1312.8
2016-Jun-27 10:34N 53°37' W 000°06'2 2.3
2016-Jun-27 09:32N 53°38' W 000°10'0 0.0
2016-Jun-27 08:32N 53°38' W 000°10'0 0.0
2016-Jun-27 07:32N 53°38' W 000°10'0 0.0
2016-Jun-27 06:32N 53°38' W 000°10'0 0.0
2016-Jun-27 05:32N 53°38' W 000°10'0 0.0
2016-Jun-27 04:32N 53°38' W 000°10'0 0.0
2016-Jun-27 03:32N 53°38' W 000°10'0 0.0
2016-Jun-27 02:32N 53°38' W 000°10'0 0.0
2016-Jun-27 01:29N 53°38' W 000°10'0 0.0
2016-Jun-27 00:32N 53°38' W 000°10'0 0.0
2016-Jun-26 23:32N 53°38' W 000°10'0 0.0
2016-Jun-26 22:32N 53°38' W 000°10'0 0.0
2016-Jun-26 21:29N 53°38' W 000°10'0 0.0
2016-Jun-26 20:32N 53°38' W 000°10'0 0.0
2016-Jun-26 19:32N 53°38' W 000°10'0 0.0
2016-Jun-26 18:32N 53°38' W 000°10'0 0.0
2016-Jun-26 17:32N 53°38' W 000°10'0 0.0
2016-Jun-26 16:32N 53°38' W 000°10'0 0.0
2016-Jun-26 15:32N 53°38' W 000°10'0 0.0
2016-Jun-26 14:32N 53°38' W 000°10'0 0.0
2016-Jun-26 13:31N 53°38' W 000°10'0 0.0
2016-Jun-26 12:31N 53°38' W 000°10'0 0.0
2016-Jun-26 11:31N 53°38' W 000°10'0 0.0
2016-Jun-26 10:34N 53°38' W 000°10'7 6.6
2016-Jun-26 09:34N 53°35' E 000°01'9 9.4
2016-Jun-26 08:33N 53°33' E 000°16'6 5.7
2016-Jun-26 07:33N 53°37' E 000°24'0 0.1
2016-Jun-26 06:33N 53°37' E 000°24'0 0.0
2016-Jun-26 05:33N 53°37' E 000°24'0 0.1
2016-Jun-26 04:33N 53°37' E 000°24'0 0.1
2016-Jun-26 03:09N 53°37' E 000°24'0 0.0
2016-Jun-26 02:21N 53°37' E 000°24'0 0.0
2016-Jun-26 01:24N 53°37' E 000°24'0 0.0
2016-Jun-26 00:27N 53°37' E 000°24'0 0.1
2016-Jun-25 23:30N 53°37' E 000°24'0 0.1
2016-Jun-25 22:33N 53°37' E 000°24'0 0.0
2016-Jun-25 21:33N 53°37' E 000°24'0 0.0
2016-Jun-25 20:33N 53°37' E 000°24'0 0.0
2016-Jun-25 19:33N 53°37' E 000°24'0 0.0
2016-Jun-25 18:33N 53°37' E 000°24'0 0.0
2016-Jun-25 17:33N 53°37' E 000°24'0 0.1
2016-Jun-25 16:20N 53°37' E 000°24'0 0.1
2016-Jun-25 15:33N 53°37' E 000°24'0 0.0
2016-Jun-25 14:32N 53°37' E 000°24'0 0.0
2016-Jun-25 13:32N 53°37' E 000°24'0 0.0
2016-Jun-25 12:29N 53°37' E 000°24'0 0.0
2016-Jun-25 11:32N 53°37' E 000°24'0 0.0
2016-Jun-25 10:33N 53°37' E 000°24'0 0.1
2016-Jun-25 09:32N 53°37' E 000°24'0 0.0
2016-Jun-25 08:26N 53°37' E 000°24'0 0.0
2016-Jun-25 07:29N 53°37' E 000°24'0 0.0
2016-Jun-25 06:32N 53°37' E 000°24'0 0.0
2016-Jun-25 05:24N 53°37' E 000°24'0 0.0
2016-Jun-25 04:32N 53°37' E 000°24'0 0.1
2016-Jun-25 03:32N 53°37' E 000°24'0 0.0
2016-Jun-25 02:26N 53°37' E 000°24'0 0.0
2016-Jun-25 01:26N 53°37' E 000°24'0 0.0
2016-Jun-25 00:32N 53°37' E 000°24'0 0.0
2016-Jun-24 23:26N 53°37' E 000°24'0 0.0
2016-Jun-24 22:26N 53°37' E 000°24'0 0.1
2016-Jun-24 21:11N 53°37' E 000°24'0 0.0
2016-Jun-24 20:26N 53°37' E 000°24'0 0.0
2016-Jun-24 19:32N 53°37' E 000°24'0 0.0
2016-Jun-24 18:32N 53°37' E 000°24'0 0.0
2016-Jun-24 17:29N 53°37' E 000°24'0 0.1
2016-Jun-24 16:32N 53°37' E 000°24'0 0.1
2016-Jun-24 15:32N 53°37' E 000°24'0 0.0
2016-Jun-24 14:32N 53°37' E 000°24'0 0.0
2016-Jun-24 12:17N 53°37' E 000°24'0 0.0
2016-Jun-24 11:29N 53°37' E 000°24'0 0.0
2016-Jun-24 10:20N 53°37' E 000°24'0 0.0
2016-Jun-24 09:32N 53°37' E 000°24'0 0.1
2016-Jun-24 08:14N 53°37' E 000°24'0 0.0
2016-Jun-24 07:32N 53°37' E 000°24'22 7.5
2016-Jun-24 04:33N 53°27' E 000°58'8 8.2
2016-Jun-24 03:33N 53°21' E 001°06'1310.2
2016-Jun-24 02:18N 53°12' E 001°21'912.0
2016-Jun-24 01:33N 53°05' E 001°31'1111.1
2016-Jun-24 00:33N 52°59' E 001°47'10 9.9
2016-Jun-23 23:33N 52°53' E 001°60'29 8.8
2016-Jun-23 20:16N 52°35' E 002°37'4211.0
2016-Jun-23 16:25N 52°09' E 003°32'7 8.4
2016-Jun-23 15:33N 52°07' E 003°44'0 0.0
2016-Jun-23 14:30N 52°07' E 003°44'0 0.1
2016-Jun-23 13:33N 52°07' E 003°44'0 0.0
2016-Jun-23 12:33N 52°07' E 003°44'0 0.0
2016-Jun-23 11:33N 52°07' E 003°44'0 0.0
2016-Jun-23 10:33N 52°07' E 003°44'0 0.0
2016-Jun-23 09:33N 52°07' E 003°44'0 0.0
2016-Jun-23 08:33N 52°07' E 003°44'0 0.1
2016-Jun-23 07:21N 52°07' E 003°44'0 0.1
2016-Jun-23 05:33N 52°07' E 003°44'0 0.1
2016-Jun-23 04:27N 52°07' E 003°44'0 0.1
2016-Jun-23 03:33N 52°07' E 003°44'0 0.0
2016-Jun-23 02:18N 52°07' E 003°44'0 0.0
2016-Jun-23 01:33N 52°07' E 003°44'0 0.1
2016-Jun-23 00:33N 52°07' E 003°44'0 0.0
2016-Jun-22 23:33N 52°07' E 003°43'0 0.0
2016-Jun-22 22:33N 52°07' E 003°44'0 0.0
2016-Jun-22 21:32N 52°07' E 003°44'0 0.0
2016-Jun-22 20:33N 52°07' E 003°44'0 0.0
2016-Jun-22 19:33N 52°07' E 003°44'0 0.1
2016-Jun-22 18:33N 52°07' E 003°44'0 0.1
2016-Jun-22 17:33N 52°07' E 003°44'0 0.0
2016-Jun-22 16:33N 52°07' E 003°44'0 0.0
2016-Jun-22 15:33N 52°07' E 003°44'0 0.0
2016-Jun-22 14:33N 52°07' E 003°44'0 0.0
2016-Jun-22 13:33N 52°07' E 003°44'0 0.1
2016-Jun-22 12:33N 52°07' E 003°44'0 0.0
2016-Jun-22 11:33N 52°07' E 003°44'0 0.0
2016-Jun-22 10:33N 52°07' E 003°43'10 9.7
2016-Jun-22 09:34N 52°01' E 003°56'1312.9
2016-Jun-22 08:33N 51°55' E 004°14'3 1.8
2016-Jun-22 07:03N 51°53' E 004°17'0 0.0
2016-Jun-22 06:27N 51°53' E 004°17'0 0.0
2016-Jun-22 05:33N 51°53' E 004°17'0 0.0
2016-Jun-22 04:21N 51°53' E 004°17'0 0.0
2016-Jun-22 03:33N 51°53' E 004°17'0 0.0
2016-Jun-22 02:27N 51°53' E 004°17'0 0.0
2016-Jun-22 00:33N 51°53' E 004°17'0 0.0
2016-Jun-21 22:30N 51°53' E 004°17'0 0.0
2016-Jun-21 21:33N 51°53' E 004°17'0 0.0
2016-Jun-21 19:27N 51°53' E 004°17'0 0.0
2016-Jun-21 17:18N 51°53' E 004°17'0 0.0
2016-Jun-21 16:27N 51°53' E 004°17'0 0.0
2016-Jun-21 15:27N 51°53' E 004°17'0 0.1
2016-Jun-21 14:34N 51°53' E 004°17'7 7.4
2016-Jun-21 13:34N 51°58' E 004°08'1212.2
2016-Jun-21 12:33N 52°00' E 003°49'1110.5
2016-Jun-21 11:31N 52°08' E 003°36'0 0.4
2016-Jun-21 10:33N 52°08' E 003°37'0 0.0
2016-Jun-21 09:33N 52°08' E 003°37'0 0.0
2016-Jun-21 08:33N 52°08' E 003°37'0 0.0
2016-Jun-21 07:33N 52°08' E 003°37'2 2.1
2016-Jun-21 06:33N 52°09' E 003°33'2612.8
2016-Jun-21 04:34N 52°25' E 003°01'4113.0
2016-Jun-21 01:23N 52°56' E 002°17'1213.4
2016-Jun-21 00:31N 53°02' E 001°59'1313.7
2016-Jun-20 23:33N 53°06' E 001°39'1413.8
2016-Jun-20 22:33N 53°13' E 001°19'1413.9
2016-Jun-20 21:33N 53°25' E 001°05'1313.4
2016-Jun-20 20:33N 53°28' E 000°44'1414.2
2016-Jun-20 19:34N 53°32' E 000°21'1312.6
2016-Jun-20 18:34N 53°35' E 000°00'6 6.3
2016-Jun-20 17:33N 53°38' W 000°10'0 0.0
2016-Jun-20 16:33N 53°38' W 000°10'0 0.0
2016-Jun-20 15:33N 53°38' W 000°10'  
Track history (hours):
 
Tides and Currents Weather Stations Pressure Air Temp Water Temp Dewpoint Dewpoint Depression Visibility Wind Speed Wind Dir Waves Ship Positions

Chantaco

Last reported at 2016-Jun-30 15:16 UTC. Time now 2016-Jun-30 17:46 UTC.
Position N 52°10' E 003°41'.

Length 143 m; draft 6.7 m.

Type: Tanker. MMSI: 228330700.

Date/timePositionNaut miles runAvg speedWind from/ knotsBaromVisibWave heightAir tempDewpointWater temp
2016-Jun-30 15:16N 52°10' E 003°41'0 0.0
2016-Jun-30 14:25N 52°10' E 003°41'0 0.0
2016-Jun-30 08:10N 52°10' E 003°41'0 0.0
2016-Jun-30 07:25N 52°10' E 003°41'0 0.0
2016-Jun-30 06:25N 52°10' E 003°41'0 0.0
2016-Jun-30 05:31N 52°10' E 003°41'0 0.0
2016-Jun-30 04:31N 52°10' E 003°41'0 0.0
2016-Jun-30 03:19N 52°10' E 003°41'0 0.0
2016-Jun-30 02:31N 52°10' E 003°41'0 0.0
2016-Jun-29 22:07N 52°10' E 003°41'0 0.0
2016-Jun-29 21:31N 52°10' E 003°41'0 0.0
2016-Jun-29 16:25N 52°10' E 003°41'0 0.0
2016-Jun-29 15:19N 52°10' E 003°41'0 0.0
2016-Jun-29 14:31N 52°10' E 003°41'0 0.0
2016-Jun-29 13:28N 52°10' E 003°41'0 0.0
2016-Jun-29 12:25N 52°10' E 003°41'0 0.0
2016-Jun-29 07:25N 52°10' E 003°41'0 0.0
2016-Jun-29 05:30N 52°10' E 003°41'0 0.0
2016-Jun-29 04:33N 52°10' E 003°41'0 0.0
2016-Jun-29 03:33N 52°10' E 003°41'0 0.0
2016-Jun-29 02:33N 52°10' E 003°41'1 1.2
2016-Jun-29 01:33N 52°09' E 003°42'1110.6
2016-Jun-29 00:33N 52°02' E 003°55'1211.5
2016-Jun-28 23:33N 51°56' E 004°11'1 1.4
2016-Jun-28 22:33N 51°55' E 004°12'0 0.0
2016-Jun-28 21:33N 51°55' E 004°12'0 0.0
2016-Jun-28 20:33N 51°55' E 004°12'0 0.0
2016-Jun-28 19:33N 51°55' E 004°12'0 0.0
2016-Jun-28 18:33N 51°55' E 004°12'0 0.0
2016-Jun-28 17:33N 51°55' E 004°12'0 0.0
2016-Jun-28 16:33N 51°55' E 004°12'0 0.0
2016-Jun-28 15:27N 51°55' E 004°12'0 0.0
2016-Jun-28 14:33N 51°55' E 004°12'0 0.0
2016-Jun-28 13:30N 51°55' E 004°12'0 0.0
2016-Jun-28 12:24N 51°55' E 004°12'0 0.0
2016-Jun-28 11:27N 51°55' E 004°12'0 0.0
2016-Jun-28 10:30N 51°55' E 004°12'0 0.0
2016-Jun-28 09:33N 51°55' E 004°12'0 0.0
2016-Jun-28 08:32N 51°55' E 004°12'0 0.0
2016-Jun-28 07:32N 51°55' E 004°12'0 0.0
2016-Jun-28 06:32N 51°55' E 004°12'0 0.0
2016-Jun-28 04:32N 51°55' E 004°12'0 0.0
2016-Jun-28 03:32N 51°55' E 004°12'0 0.0
2016-Jun-28 02:32N 51°55' E 004°12'0 0.1
2016-Jun-28 01:34N 51°55' E 004°12'7 7.2
2016-Jun-28 00:33N 51°59' E 004°03'1010.1
2016-Jun-27 23:33N 52°01' E 003°47'1413.9
2016-Jun-27 22:33N 52°08' E 003°28'1313.3
2016-Jun-27 21:33N 52°18' E 003°12'6613.1
2016-Jun-27 16:33N 53°03' E 001°54'1413.9
2016-Jun-27 15:33N 53°08' E 001°33'1413.8
2016-Jun-27 14:33N 53°16' E 001°14'1413.4
2016-Jun-27 13:30N 53°27' E 000°59'1414.1
2016-Jun-27 12:32N 53°30' E 000°37'1413.8
2016-Jun-27 11:34N 53°33' E 000°14'1312.8
2016-Jun-27 10:34N 53°37' W 000°06'2 2.3
2016-Jun-27 09:32N 53°38' W 000°10'0 0.0
2016-Jun-27 08:32N 53°38' W 000°10'0 0.0
2016-Jun-27 07:32N 53°38' W 000°10'0 0.0
2016-Jun-27 06:32N 53°38' W 000°10'0 0.0
2016-Jun-27 05:32N 53°38' W 000°10'0 0.0
2016-Jun-27 04:32N 53°38' W 000°10'0 0.0
2016-Jun-27 03:32N 53°38' W 000°10'0 0.0
2016-Jun-27 02:32N 53°38' W 000°10'0 0.0
2016-Jun-27 01:29N 53°38' W 000°10'0 0.0
2016-Jun-27 00:32N 53°38' W 000°10'0 0.0
2016-Jun-26 23:32N 53°38' W 000°10'0 0.0
2016-Jun-26 22:32N 53°38' W 000°10'0 0.0
2016-Jun-26 21:29N 53°38' W 000°10'0 0.0
2016-Jun-26 20:32N 53°38' W 000°10'0 0.0
2016-Jun-26 19:32N 53°38' W 000°10'0 0.0
2016-Jun-26 18:32N 53°38' W 000°10'0 0.0
2016-Jun-26 17:32N 53°38' W 000°10'0 0.0
2016-Jun-26 16:32N 53°38' W 000°10'0 0.0
2016-Jun-26 15:32N 53°38' W 000°10'0 0.0
2016-Jun-26 14:32N 53°38' W 000°10'0 0.0
2016-Jun-26 13:31N 53°38' W 000°10'0 0.0
2016-Jun-26 12:31N 53°38' W 000°10'0 0.0
2016-Jun-26 11:31N 53°38' W 000°10'0 0.0
2016-Jun-26 10:34N 53°38' W 000°10'7 6.6
2016-Jun-26 09:34N 53°35' E 000°01'9 9.4
2016-Jun-26 08:33N 53°33' E 000°16'6 5.7
2016-Jun-26 07:33N 53°37' E 000°24'0 0.1
2016-Jun-26 06:33N 53°37' E 000°24'0 0.0
2016-Jun-26 05:33N 53°37' E 000°24'0 0.1
2016-Jun-26 04:33N 53°37' E 000°24'0 0.1
2016-Jun-26 03:09N 53°37' E 000°24'0 0.0
2016-Jun-26 02:21N 53°37' E 000°24'0 0.0
2016-Jun-26 01:24N 53°37' E 000°24'0 0.0
2016-Jun-26 00:27N 53°37' E 000°24'0 0.1
2016-Jun-25 23:30N 53°37' E 000°24'0 0.1
2016-Jun-25 22:33N 53°37' E 000°24'0 0.0
2016-Jun-25 21:33N 53°37' E 000°24'0 0.0
2016-Jun-25 20:33N 53°37' E 000°24'0 0.0
2016-Jun-25 19:33N 53°37' E 000°24'0 0.0
2016-Jun-25 18:33N 53°37' E 000°24'0 0.0
2016-Jun-25 17:33N 53°37' E 000°24'0 0.1
2016-Jun-25 16:20N 53°37' E 000°24'0 0.1
2016-Jun-25 15:33N 53°37' E 000°24'0 0.0
2016-Jun-25 14:32N 53°37' E 000°24'0 0.0
2016-Jun-25 13:32N 53°37' E 000°24'0 0.0
2016-Jun-25 12:29N 53°37' E 000°24'0 0.0
2016-Jun-25 11:32N 53°37' E 000°24'0 0.0
2016-Jun-25 10:33N 53°37' E 000°24'0 0.1
2016-Jun-25 09:32N 53°37' E 000°24'0 0.0
2016-Jun-25 08:26N 53°37' E 000°24'0 0.0
2016-Jun-25 07:29N 53°37' E 000°24'0 0.0
2016-Jun-25 06:32N 53°37' E 000°24'0 0.0
2016-Jun-25 05:24N 53°37' E 000°24'0 0.0
2016-Jun-25 04:32N 53°37' E 000°24'0 0.1
2016-Jun-25 03:32N 53°37' E 000°24'0 0.0
2016-Jun-25 02:26N 53°37' E 000°24'0 0.0
2016-Jun-25 01:26N 53°37' E 000°24'0 0.0
2016-Jun-25 00:32N 53°37' E 000°24'0 0.0
2016-Jun-24 23:26N 53°37' E 000°24'0 0.0
2016-Jun-24 22:26N 53°37' E 000°24'0 0.1
2016-Jun-24 21:11N 53°37' E 000°24'0 0.0
2016-Jun-24 20:26N 53°37' E 000°24'0 0.0
2016-Jun-24 19:32N 53°37' E 000°24'0 0.0
2016-Jun-24 18:32N 53°37' E 000°24'0 0.0
2016-Jun-24 17:29N 53°37' E 000°24'0 0.1
2016-Jun-24 16:32N 53°37' E 000°24'0 0.1
2016-Jun-24 15:32N 53°37' E 000°24'0 0.0
2016-Jun-24 14:32N 53°37' E 000°24'0 0.0
2016-Jun-24 12:17N 53°37' E 000°24'0 0.0
2016-Jun-24 11:29N 53°37' E 000°24'0 0.0
2016-Jun-24 10:20N 53°37' E 000°24'0 0.0
2016-Jun-24 09:32N 53°37' E 000°24'0 0.1
2016-Jun-24 08:14N 53°37' E 000°24'0 0.0
2016-Jun-24 07:32N 53°37' E 000°24'22 7.5
2016-Jun-24 04:33N 53°27' E 000°58'8 8.2
2016-Jun-24 03:33N 53°21' E 001°06'1310.2
2016-Jun-24 02:18N 53°12' E 001°21'912.0
2016-Jun-24 01:33N 53°05' E 001°31'1111.1
2016-Jun-24 00:33N 52°59' E 001°47'10 9.9
2016-Jun-23 23:33N 52°53' E 001°60'29 8.8
2016-Jun-23 20:16N 52°35' E 002°37'4211.0
2016-Jun-23 16:25N 52°09' E 003°32'7 8.4
2016-Jun-23 15:33N 52°07' E 003°44'0 0.0
2016-Jun-23 14:30N 52°07' E 003°44'0 0.1
2016-Jun-23 13:33N 52°07' E 003°44'0 0.0
2016-Jun-23 12:33N 52°07' E 003°44'0 0.0
2016-Jun-23 11:33N 52°07' E 003°44'0 0.0
2016-Jun-23 10:33N 52°07' E 003°44'0 0.0
2016-Jun-23 09:33N 52°07' E 003°44'0 0.0
2016-Jun-23 08:33N 52°07' E 003°44'0 0.1
2016-Jun-23 07:21N 52°07' E 003°44'0 0.1
2016-Jun-23 05:33N 52°07' E 003°44'0 0.1
2016-Jun-23 04:27N 52°07' E 003°44'0 0.1
2016-Jun-23 03:33N 52°07' E 003°44'0 0.0
2016-Jun-23 02:18N 52°07' E 003°44'0 0.0
2016-Jun-23 01:33N 52°07' E 003°44'0 0.1
2016-Jun-23 00:33N 52°07' E 003°44'0 0.0
2016-Jun-22 23:33N 52°07' E 003°43'0 0.0
2016-Jun-22 22:33N 52°07' E 003°44'0 0.0
2016-Jun-22 21:32N 52°07' E 003°44'0 0.0
2016-Jun-22 20:33N 52°07' E 003°44'0 0.0
2016-Jun-22 19:33N 52°07' E 003°44'0 0.1
2016-Jun-22 18:33N 52°07' E 003°44'0 0.1
2016-Jun-22 17:33N 52°07' E 003°44'0 0.0
2016-Jun-22 16:33N 52°07' E 003°44'0 0.0
2016-Jun-22 15:33N 52°07' E 003°44'0 0.0
2016-Jun-22 14:33N 52°07' E 003°44'0 0.0
2016-Jun-22 13:33N 52°07' E 003°44'0 0.1
2016-Jun-22 12:33N 52°07' E 003°44'0 0.0
2016-Jun-22 11:33N 52°07' E 003°44'0 0.0
2016-Jun-22 10:33N 52°07' E 003°43'10 9.7
2016-Jun-22 09:34N 52°01' E 003°56'1312.9
2016-Jun-22 08:33N 51°55' E 004°14'3 1.8
2016-Jun-22 07:03N 51°53' E 004°17'0 0.0
2016-Jun-22 06:27N 51°53' E 004°17'0 0.0
2016-Jun-22 05:33N 51°53' E 004°17'0 0.0
2016-Jun-22 04:21N 51°53' E 004°17'0 0.0
2016-Jun-22 03:33N 51°53' E 004°17'0 0.0
2016-Jun-22 02:27N 51°53' E 004°17'0 0.0
2016-Jun-22 00:33N 51°53' E 004°17'0 0.0
2016-Jun-21 22:30N 51°53' E 004°17'0 0.0
2016-Jun-21 21:33N 51°53' E 004°17'0 0.0
2016-Jun-21 19:27N 51°53' E 004°17'0 0.0
2016-Jun-21 17:18N 51°53' E 004°17'0 0.0
2016-Jun-21 16:27N 51°53' E 004°17'0 0.0
2016-Jun-21 15:27N 51°53' E 004°17'0 0.1
2016-Jun-21 14:34N 51°53' E 004°17'7 7.4
2016-Jun-21 13:34N 51°58' E 004°08'1212.2
2016-Jun-21 12:33N 52°00' E 003°49'1110.5
2016-Jun-21 11:31N 52°08' E 003°36'0 0.4
2016-Jun-21 10:33N 52°08' E 003°37'0 0.0
2016-Jun-21 09:33N 52°08' E 003°37'0 0.0
2016-Jun-21 08:33N 52°08' E 003°37'0 0.0
2016-Jun-21 07:33N 52°08' E 003°37'2 2.1
2016-Jun-21 06:33N 52°09' E 003°33'2612.8
2016-Jun-21 04:34N 52°25' E 003°01'4113.0
2016-Jun-21 01:23N 52°56' E 002°17'1213.4
2016-Jun-21 00:31N 53°02' E 001°59'1313.7
2016-Jun-20 23:33N 53°06' E 001°39'1413.8
2016-Jun-20 22:33N 53°13' E 001°19'1413.9
2016-Jun-20 21:33N 53°25' E 001°05'1313.4
2016-Jun-20 20:33N 53°28' E 000°44'1414.2
2016-Jun-20 19:34N 53°32' E 000°21'1312.6
2016-Jun-20 18:34N 53°35' E 000°00'6 6.3
2016-Jun-20 17:33N 53°38' W 000°10'0 0.0
2016-Jun-20 16:33N 53°38' W 000°10'0 0.0
2016-Jun-20 15:33N 53°38' W 000°10'  

Dump ship's entire track history